createdAt,value
2022-11-30T00:01:17.720Z,3.10
2022-11-30T00:03:44.832Z,3.10
2022-11-30T00:06:14.099Z,3.10
2022-11-30T00:08:40.889Z,3.00
2022-11-30T00:11:18.251Z,3.00
2022-11-30T00:13:45.123Z,3.00
2022-11-30T00:16:11.888Z,3.00
2022-11-30T00:18:39.419Z,3.10
2022-11-30T00:21:11.420Z,3.00
2022-11-30T00:23:41.203Z,3.00
2022-11-30T00:26:10.079Z,3.10
2022-11-30T00:28:38.111Z,3.10
2022-11-30T00:31:11.062Z,3.10
2022-11-30T00:33:38.548Z,3.10
2022-11-30T00:36:17.813Z,3.20
2022-11-30T00:38:45.630Z,3.20
2022-11-30T00:41:13.047Z,3.10
2022-11-30T00:43:39.874Z,3.20
2022-11-30T00:46:09.247Z,3.20
2022-11-30T00:48:36.819Z,3.20
2022-11-30T00:51:04.039Z,3.20
2022-11-30T00:53:30.903Z,3.20
2022-11-30T00:55:57.578Z,3.30
2022-11-30T00:58:24.402Z,3.30
2022-11-30T01:00:51.352Z,3.30
2022-11-30T01:03:18.101Z,3.30
2022-11-30T01:05:44.780Z,3.30
2022-11-30T01:08:13.066Z,3.30
2022-11-30T01:10:42.171Z,3.30
2022-11-30T01:13:11.135Z,3.30
2022-11-30T01:15:40.415Z,3.30
2022-11-30T01:18:07.549Z,3.30
2022-11-30T01:20:34.756Z,3.40
2022-11-30T01:23:01.650Z,3.40
2022-11-30T01:25:28.435Z,3.30
2022-11-30T01:27:55.150Z,3.40
2022-11-30T01:30:21.866Z,3.30
2022-11-30T01:32:48.575Z,3.30
2022-11-30T01:35:15.372Z,3.30
2022-11-30T01:37:42.156Z,3.20
2022-11-30T01:40:11.727Z,3.20
2022-11-30T01:42:38.507Z,3.20
2022-11-30T01:45:07.285Z,3.20
2022-11-30T01:47:41.043Z,3.20
2022-11-30T01:50:16.180Z,3.20
2022-11-30T01:52:51.835Z,3.10
2022-11-30T01:55:32.340Z,3.20
2022-11-30T01:58:27.098Z,3.20
2022-11-30T02:00:53.982Z,3.20
2022-11-30T02:03:41.379Z,3.20
2022-11-30T02:06:08.385Z,3.20
2022-11-30T02:08:35.284Z,3.30
2022-11-30T02:11:05.647Z,3.30
2022-11-30T02:13:44.930Z,3.30
2022-11-30T02:16:26.987Z,3.30
2022-11-30T02:19:31.231Z,3.30
2022-11-30T02:22:10.726Z,3.30
2022-11-30T02:25:02.540Z,3.30
2022-11-30T02:28:06.744Z,3.30
2022-11-30T02:30:36.151Z,3.30
2022-11-30T02:33:11.895Z,3.30
2022-11-30T02:35:43.394Z,3.40
2022-11-30T02:38:11.750Z,3.40
2022-11-30T02:40:38.536Z,3.40
2022-11-30T02:43:06.626Z,3.40
2022-11-30T02:45:41.526Z,3.30
2022-11-30T02:48:10.398Z,3.30
2022-11-30T02:50:48.610Z,3.40
2022-11-30T02:53:15.394Z,3.40
2022-11-30T02:55:42.131Z,3.40
2022-11-30T02:58:08.814Z,3.30
2022-11-30T03:00:35.747Z,3.30
2022-11-30T03:03:02.613Z,3.30
2022-11-30T03:05:29.448Z,3.30
2022-11-30T03:07:56.195Z,3.30
2022-11-30T03:10:23.012Z,3.20
2022-11-30T03:12:49.854Z,3.20
2022-11-30T03:15:16.690Z,3.20
2022-11-30T03:17:43.463Z,3.10
2022-11-30T03:20:10.404Z,3.10
2022-11-30T03:22:37.198Z,3.10
2022-11-30T03:25:04.147Z,3.10
2022-11-30T03:27:30.818Z,3.10
2022-11-30T03:29:57.562Z,3.00
2022-11-30T03:32:24.269Z,3.00
2022-11-30T03:34:51.104Z,3.00
2022-11-30T03:37:18.004Z,3.00
2022-11-30T03:39:44.758Z,3.00
2022-11-30T03:42:11.471Z,3.00
2022-11-30T03:44:38.194Z,3.00
2022-11-30T03:47:05.023Z,3.00
2022-11-30T03:49:31.745Z,3.10
2022-11-30T03:51:58.421Z,3.10
2022-11-30T03:54:25.170Z,3.10
2022-11-30T03:56:51.891Z,3.10
2022-11-30T03:59:18.598Z,3.10
2022-11-30T04:01:45.342Z,3.20
2022-11-30T04:04:12.486Z,3.20
2022-11-30T04:06:40.607Z,3.20
2022-11-30T04:09:07.368Z,3.30
2022-11-30T04:11:34.131Z,3.30
2022-11-30T04:14:00.813Z,3.30
2022-11-30T04:16:27.737Z,3.30
2022-11-30T04:18:54.492Z,3.30
2022-11-30T04:21:21.332Z,3.30
2022-11-30T04:23:48.036Z,3.30
2022-11-30T04:26:16.605Z,3.30
2022-11-30T04:28:44.013Z,3.30
2022-11-30T04:31:11.587Z,3.30
2022-11-30T04:33:38.736Z,3.40
2022-11-30T04:36:07.655Z,3.40
2022-11-30T04:38:36.138Z,3.30
2022-11-30T04:41:08.218Z,3.30
2022-11-30T04:43:35.074Z,3.30
2022-11-30T04:46:01.762Z,3.30
2022-11-30T04:48:28.481Z,3.30
2022-11-30T04:51:06.890Z,3.30
2022-11-30T04:53:34.912Z,3.30
2022-11-30T04:56:06.998Z,3.30
2022-11-30T04:58:33.842Z,3.20
2022-11-30T05:01:00.620Z,3.20
2022-11-30T05:03:27.412Z,3.20
2022-11-30T05:05:54.158Z,3.20
2022-11-30T05:08:20.948Z,3.20
2022-11-30T05:10:53.422Z,3.20
2022-11-30T05:13:21.213Z,3.20
2022-11-30T05:15:48.216Z,3.20
2022-11-30T05:18:15.903Z,3.30
2022-11-30T05:20:48.131Z,3.30
2022-11-30T05:23:16.135Z,3.20
2022-11-30T05:25:44.087Z,3.30
2022-11-30T05:28:11.293Z,3.20
2022-11-30T05:30:42.108Z,3.30
2022-11-30T05:33:09.097Z,3.30
2022-11-30T05:35:36.250Z,3.30
2022-11-30T05:38:03.324Z,3.30
2022-11-30T05:40:32.507Z,3.30
2022-11-30T05:43:01.030Z,3.40
2022-11-30T05:45:28.306Z,3.40
2022-11-30T05:47:55.042Z,3.30
2022-11-30T05:50:21.921Z,3.30
2022-11-30T05:52:48.662Z,3.30
2022-11-30T05:55:15.357Z,3.30
2022-11-30T05:57:42.123Z,3.30
2022-11-30T06:00:09.964Z,3.30
2022-11-30T06:02:37.034Z,3.30
2022-11-30T06:05:04.069Z,3.30
2022-11-30T06:07:30.868Z,3.30
2022-11-30T06:09:57.749Z,3.30
2022-11-30T06:12:24.616Z,3.30
2022-11-30T06:14:51.378Z,3.30
2022-11-30T06:17:18.125Z,3.30
2022-11-30T06:19:44.877Z,3.30
2022-11-30T06:22:11.562Z,3.40
2022-11-30T06:24:38.262Z,3.40
2022-11-30T06:27:04.978Z,3.40
2022-11-30T06:29:31.661Z,3.50
2022-11-30T06:31:58.379Z,3.50
2022-11-30T06:34:25.134Z,3.50
2022-11-30T06:36:51.835Z,3.50
2022-11-30T06:39:31.488Z,3.60
2022-11-30T06:42:05.489Z,3.60
2022-11-30T06:44:32.223Z,3.60
2022-11-30T06:46:58.930Z,3.60
2022-11-30T06:49:25.706Z,3.60
2022-11-30T06:51:52.407Z,3.60
2022-11-30T06:54:19.146Z,3.60
2022-11-30T06:56:45.836Z,3.60
2022-11-30T06:59:12.570Z,3.60
2022-11-30T07:01:39.317Z,3.60
2022-11-30T07:04:06.065Z,3.60
2022-11-30T07:06:32.782Z,3.60
2022-11-30T07:08:59.489Z,3.60
2022-11-30T07:11:26.263Z,3.60
2022-11-30T07:13:52.992Z,3.60
2022-11-30T07:16:19.708Z,3.60
2022-11-30T07:18:46.449Z,3.60
2022-11-30T07:21:13.263Z,3.70
2022-11-30T07:23:58.387Z,3.70
2022-11-30T07:26:25.877Z,3.70
2022-11-30T07:28:58.701Z,3.80
2022-11-30T07:31:28.094Z,3.80
2022-11-30T07:33:56.100Z,3.80
2022-11-30T07:36:25.572Z,3.90
2022-11-30T07:38:52.666Z,3.90
2022-11-30T07:41:19.512Z,3.90
2022-11-30T07:43:46.261Z,3.90
2022-11-30T07:46:14.700Z,3.90
2022-11-30T07:48:42.948Z,3.90
2022-11-30T07:51:15.547Z,3.90
2022-11-30T07:53:42.750Z,3.90
2022-11-30T07:56:12.966Z,3.80
2022-11-30T07:58:40.130Z,3.90
2022-11-30T08:01:09.519Z,3.90
2022-11-30T08:03:37.542Z,3.80
2022-11-30T08:06:09.821Z,3.90
2022-11-30T08:08:39.134Z,3.90
2022-11-30T08:11:07.695Z,3.90
2022-11-30T08:13:34.810Z,3.90
2022-11-30T08:16:03.704Z,3.90
2022-11-30T08:18:30.540Z,3.90
2022-11-30T08:21:02.381Z,4.00
2022-11-30T08:23:35.847Z,4.00
2022-11-30T08:26:23.085Z,4.00
2022-11-30T08:28:51.012Z,4.10
2022-11-30T08:31:19.288Z,4.10
2022-11-30T08:33:46.138Z,4.10
2022-11-30T08:36:18.524Z,4.10
2022-11-30T08:38:47.025Z,4.10
2022-11-30T08:41:17.015Z,4.20
2022-11-30T08:43:43.730Z,4.10
2022-11-30T08:49:21.074Z,4.20
2022-11-30T08:52:15.897Z,4.20
2022-11-30T08:54:35.050Z,4.20
2022-11-30T08:57:01.898Z,4.20
2022-11-30T08:59:31.417Z,4.30
2022-11-30T09:01:58.244Z,4.30
2022-11-30T09:04:25.032Z,4.30
2022-11-30T09:06:51.756Z,4.30
2022-11-30T09:09:18.658Z,4.30
2022-11-30T09:11:45.344Z,4.30
2022-11-30T09:14:12.102Z,4.30
2022-11-30T09:16:38.855Z,4.40
2022-11-30T09:19:05.627Z,4.30
2022-11-30T09:21:32.414Z,4.40
2022-11-30T09:23:59.109Z,4.40
2022-11-30T09:26:26.025Z,4.40
2022-11-30T09:28:54.106Z,4.40
2022-11-30T09:31:26.205Z,4.40
2022-11-30T09:33:55.011Z,4.40
2022-11-30T09:36:22.858Z,4.40
2022-11-30T09:38:49.968Z,4.40
2022-11-30T09:41:28.882Z,4.40
2022-11-30T09:44:20.118Z,4.50
2022-11-30T09:47:11.216Z,4.50
2022-11-30T09:49:45.932Z,4.50
2022-11-30T09:52:25.071Z,4.50
2022-11-30T09:54:51.842Z,4.50
2022-11-30T09:57:47.949Z,4.50
2022-11-30T10:00:21.814Z,4.50
2022-11-30T10:02:53.791Z,4.50
2022-11-30T10:05:22.180Z,4.50
2022-11-30T10:08:06.229Z,4.60
2022-11-30T10:10:39.731Z,4.60
2022-11-30T10:13:06.505Z,4.60
2022-11-30T10:15:46.603Z,4.70
2022-11-30T10:18:45.444Z,4.60
2022-11-30T10:21:41.288Z,4.60
2022-11-30T10:24:38.804Z,4.70
2022-11-30T10:27:33.136Z,4.70
2022-11-30T10:30:01.675Z,4.70
2022-11-30T10:32:36.772Z,4.70
2022-11-30T10:35:29.747Z,4.70
2022-11-30T10:37:58.007Z,4.60
2022-11-30T10:40:45.915Z,4.60
2022-11-30T10:43:27.617Z,4.60
2022-11-30T10:45:54.729Z,4.60
2022-11-30T10:48:40.612Z,4.60
2022-11-30T10:51:08.155Z,4.60
2022-11-30T10:53:34.915Z,4.70
2022-11-30T10:56:06.742Z,4.70
2022-11-30T10:58:38.959Z,4.70
2022-11-30T11:01:11.720Z,4.70
2022-11-30T11:03:38.621Z,4.80
2022-11-30T11:06:23.828Z,4.80
2022-11-30T11:08:51.191Z,4.80
2022-11-30T11:11:38.928Z,4.80
2022-11-30T11:14:15.849Z,4.90
2022-11-30T11:16:56.189Z,4.90
2022-11-30T11:19:33.391Z,5.00
2022-11-30T11:22:21.683Z,5.10
2022-11-30T11:24:50.569Z,5.10
2022-11-30T11:27:26.346Z,5.10
2022-11-30T11:29:59.143Z,5.10
2022-11-30T11:32:25.919Z,5.20
2022-11-30T11:34:53.517Z,5.20
2022-11-30T11:37:22.546Z,5.20
2022-11-30T11:40:12.955Z,5.20
2022-11-30T11:42:49.891Z,5.20
2022-11-30T11:45:26.057Z,5.20
2022-11-30T11:48:28.770Z,5.20
2022-11-30T11:51:07.153Z,5.20
2022-11-30T11:53:48.711Z,5.20
2022-11-30T11:56:31.640Z,5.20
2022-11-30T11:59:00.528Z,5.20
2022-11-30T12:01:50.397Z,5.20
2022-11-30T12:04:41.808Z,5.20
2022-11-30T12:07:38.059Z,5.20
2022-11-30T12:10:50.580Z,5.20
2022-11-30T12:13:19.449Z,5.10
2022-11-30T12:16:14.563Z,5.10
2022-11-30T12:19:05.606Z,5.10
2022-11-30T12:21:59.563Z,5.00
2022-11-30T12:24:38.423Z,4.90
2022-11-30T12:27:20.142Z,4.90
2022-11-30T12:29:47.237Z,4.90
2022-11-30T12:32:46.100Z,4.80
2022-11-30T12:35:27.857Z,4.70
2022-11-30T12:38:10.103Z,4.70
2022-11-30T12:40:55.824Z,4.70
2022-11-30T12:43:38.134Z,4.70
2022-11-30T12:46:19.494Z,4.70
2022-11-30T12:49:13.371Z,4.70
2022-11-30T12:51:50.923Z,4.70
2022-11-30T12:54:34.598Z,4.60
2022-11-30T12:57:23.042Z,4.60
2022-11-30T13:00:16.054Z,4.60
2022-11-30T13:02:45.472Z,4.70
2022-11-30T13:05:21.312Z,4.70
2022-11-30T13:08:03.071Z,4.60
2022-11-30T13:10:29.746Z,4.70
2022-11-30T13:12:57.453Z,4.70
2022-11-30T13:15:27.690Z,4.80
2022-11-30T13:17:55.425Z,4.80
2022-11-30T13:20:45.205Z,4.80
2022-11-30T13:23:18.982Z,4.90
2022-11-30T13:26:07.813Z,4.90
2022-11-30T13:28:41.043Z,4.90
2022-11-30T13:31:34.206Z,4.90
2022-11-30T13:34:01.116Z,5.00
2022-11-30T13:36:37.023Z,5.00
2022-11-30T13:39:16.418Z,5.00
2022-11-30T13:41:49.387Z,5.00
2022-11-30T13:44:45.440Z,4.90
2022-11-30T13:47:27.702Z,4.90
2022-11-30T13:50:00.726Z,4.90
2022-11-30T13:52:58.548Z,4.90
2022-11-30T13:55:43.404Z,4.90
2022-11-30T13:58:11.556Z,4.90
2022-11-30T14:00:38.245Z,4.90
2022-11-30T14:06:56.466Z,4.80
2022-11-30T14:09:41.337Z,4.80
2022-11-30T14:12:33.026Z,4.70
2022-11-30T14:15:01.085Z,4.70
2022-11-30T14:17:38.147Z,4.70
2022-11-30T14:20:16.426Z,4.60
2022-11-30T14:22:44.183Z,4.50
2022-11-30T14:25:19.857Z,4.50
2022-11-30T14:27:48.993Z,4.40
2022-11-30T14:30:21.510Z,4.40
2022-11-30T14:33:04.365Z,4.30
2022-11-30T14:35:32.010Z,4.20
2022-11-30T14:38:00.355Z,4.20
2022-11-30T14:40:33.437Z,4.10
2022-11-30T14:43:02.105Z,4.10
2022-11-30T14:45:32.047Z,4.10
2022-11-30T14:48:15.679Z,4.10
2022-11-30T14:50:54.860Z,4.10
2022-11-30T14:53:42.678Z,4.10
2022-11-30T14:56:33.309Z,4.10
2022-11-30T14:59:37.406Z,4.00
2022-11-30T15:02:11.954Z,4.00
2022-11-30T15:04:38.736Z,4.00
2022-11-30T15:07:13.219Z,4.00
2022-11-30T15:09:44.370Z,4.00
2022-11-30T15:12:15.231Z,3.90
2022-11-30T15:15:13.996Z,4.00
2022-11-30T15:17:54.454Z,3.90
2022-11-30T15:21:03.541Z,3.90
2022-11-30T15:23:30.392Z,3.80
2022-11-30T15:26:02.658Z,3.70
2022-11-30T15:28:37.707Z,3.60
2022-11-30T15:31:08.506Z,3.60
2022-11-30T15:33:42.660Z,3.60
2022-11-30T15:36:23.421Z,3.60
2022-11-30T15:38:56.601Z,3.60
2022-11-30T15:41:25.586Z,3.50
2022-11-30T15:43:54.634Z,3.50
2022-11-30T15:46:44.454Z,3.50
2022-11-30T15:49:12.622Z,3.50
2022-11-30T15:51:41.600Z,3.40
2022-11-30T15:54:08.426Z,3.40
2022-11-30T15:56:36.319Z,3.30
2022-11-30T15:59:04.764Z,3.40
2022-11-30T16:02:01.506Z,3.40
2022-11-30T16:04:48.274Z,3.50
2022-11-30T16:07:19.121Z,3.50
2022-11-30T16:09:46.271Z,3.50
2022-11-30T16:12:27.730Z,3.40
2022-11-30T16:14:54.410Z,3.30
2022-11-30T16:17:21.686Z,3.30
2022-11-30T16:19:48.776Z,3.40
2022-11-30T16:22:16.698Z,3.40
2022-11-30T16:24:43.386Z,3.40
2022-11-30T16:27:18.517Z,3.40
2022-11-30T16:29:50.646Z,3.50
2022-11-30T16:32:19.520Z,3.50
2022-11-30T16:34:47.942Z,3.60
2022-11-30T16:37:14.751Z,3.50
2022-11-30T16:39:41.493Z,3.50
2022-11-30T16:42:12.556Z,3.40
2022-11-30T16:44:39.302Z,3.30
2022-11-30T16:47:06.055Z,3.30
2022-11-30T16:49:32.759Z,3.40
2022-11-30T16:51:59.432Z,3.40
2022-11-30T16:54:26.165Z,3.30
2022-11-30T16:56:52.859Z,3.30
2022-11-30T16:59:19.571Z,3.30
2022-11-30T17:01:48.694Z,3.30
2022-11-30T17:04:22.848Z,3.30
2022-11-30T17:06:51.606Z,3.30
2022-11-30T17:09:21.154Z,3.20
2022-11-30T17:11:52.797Z,3.20
2022-11-30T17:14:21.006Z,3.20
2022-11-30T17:16:47.954Z,3.20
2022-11-30T17:19:14.698Z,3.20
2022-11-30T17:21:44.456Z,3.30
2022-11-30T17:24:12.054Z,3.30
2022-11-30T17:26:38.726Z,3.20
2022-11-30T17:29:05.752Z,3.20
2022-11-30T17:31:33.002Z,3.10
2022-11-30T17:33:59.703Z,3.10
2022-11-30T17:36:27.046Z,3.10
2022-11-30T17:38:53.826Z,3.10
2022-11-30T17:41:21.953Z,3.20
2022-11-30T17:43:49.319Z,3.20
2022-11-30T17:46:18.225Z,3.30
2022-11-30T17:48:45.362Z,3.40
2022-11-30T17:51:12.761Z,3.40
2022-11-30T17:53:40.756Z,3.40
2022-11-30T17:56:10.222Z,3.40
2022-11-30T17:58:43.884Z,3.30
2022-11-30T18:01:20.359Z,3.20
2022-11-30T18:03:48.117Z,3.20
2022-11-30T18:06:15.301Z,3.10
2022-11-30T18:08:42.514Z,3.10
2022-11-30T18:11:10.215Z,3.10
2022-11-30T18:13:37.311Z,3.00
2022-11-30T18:16:31.841Z,3.00
2022-11-30T18:18:59.689Z,3.00
2022-11-30T18:21:29.608Z,3.10
2022-11-30T18:23:57.675Z,3.10
2022-11-30T18:26:25.977Z,3.10
2022-11-30T18:28:54.885Z,3.10
2022-11-30T18:31:22.092Z,3.20
2022-11-30T18:33:48.999Z,3.10
2022-11-30T18:36:15.731Z,3.10
2022-11-30T18:38:43.922Z,3.10
2022-11-30T18:41:10.657Z,3.10
2022-11-30T18:43:38.167Z,3.10
2022-11-30T18:46:07.141Z,3.10
2022-11-30T18:48:34.441Z,3.10
2022-11-30T18:51:10.206Z,3.00
2022-11-30T18:53:36.992Z,3.00
2022-11-30T18:56:13.168Z,3.00
2022-11-30T18:58:40.893Z,3.00
2022-11-30T19:01:19.918Z,3.00
2022-11-30T19:03:52.421Z,2.90
2022-11-30T19:06:19.891Z,2.90
2022-11-30T19:08:47.771Z,2.90
2022-11-30T19:11:15.710Z,2.90
2022-11-30T19:13:42.505Z,2.90
2022-11-30T19:16:13.127Z,2.90
2022-11-30T19:18:40.161Z,2.90
2022-11-30T19:21:15.100Z,2.90
2022-11-30T19:23:42.274Z,2.90
2022-11-30T19:26:10.254Z,3.00
2022-11-30T19:28:38.783Z,3.10
2022-11-30T19:31:25.022Z,3.10
2022-11-30T19:33:54.018Z,3.20
2022-11-30T19:36:23.558Z,3.30
2022-11-30T19:38:53.815Z,3.20
2022-11-30T19:41:21.206Z,3.20
2022-11-30T19:43:57.065Z,3.20
2022-11-30T19:46:28.124Z,3.30
2022-11-30T19:48:57.647Z,3.30
2022-11-30T19:51:24.398Z,3.30
2022-11-30T19:53:55.517Z,3.30
2022-11-30T19:56:23.429Z,3.40
2022-11-30T19:58:50.611Z,3.30
2022-11-30T20:01:23.968Z,3.40
2022-11-30T20:03:51.829Z,3.40
2022-11-30T20:06:19.435Z,3.40
2022-11-30T20:08:46.376Z,3.40
2022-11-30T20:11:14.507Z,3.30
2022-11-30T20:13:42.090Z,3.30
2022-11-30T20:16:13.593Z,3.30
2022-11-30T20:18:45.739Z,3.40
2022-11-30T20:21:19.580Z,3.40
2022-11-30T20:23:47.738Z,3.40
2022-11-30T20:26:19.642Z,3.40
2022-11-30T20:28:48.216Z,3.50
2022-11-30T20:31:16.846Z,3.50
2022-11-30T20:33:44.013Z,3.50
2022-11-30T20:36:12.207Z,3.60
2022-11-30T20:38:39.456Z,3.60
2022-11-30T20:41:10.604Z,3.60
2022-11-30T20:43:37.545Z,3.70
2022-11-30T20:46:22.682Z,3.80
2022-11-30T20:48:49.885Z,4.00
2022-11-30T20:51:32.804Z,3.90
2022-11-30T20:54:02.412Z,3.90
2022-11-30T20:56:29.422Z,3.90
2022-11-30T20:58:56.427Z,3.90
2022-11-30T21:01:23.770Z,3.80
2022-11-30T21:03:50.599Z,3.80
2022-11-30T21:06:17.642Z,3.80
2022-11-30T21:08:44.470Z,3.70
2022-11-30T21:11:17.312Z,3.70
2022-11-30T21:13:46.279Z,3.60
2022-11-30T21:16:15.657Z,3.60
2022-11-30T21:18:44.900Z,3.50
2022-11-30T21:21:17.955Z,3.40
2022-11-30T21:23:45.309Z,3.40
2022-11-30T21:26:23.560Z,3.30
2022-11-30T21:28:55.760Z,3.30
2022-11-30T21:31:23.445Z,3.20
2022-11-30T21:33:53.287Z,3.10
2022-11-30T21:36:21.581Z,3.10
2022-11-30T21:38:52.522Z,3.00
2022-11-30T21:41:19.219Z,3.10
2022-11-30T21:43:46.040Z,3.00
2022-11-30T21:46:15.398Z,3.10
2022-11-30T21:48:43.829Z,3.10
2022-11-30T21:51:16.330Z,3.10
2022-11-30T21:53:45.421Z,3.10
2022-11-30T21:56:14.715Z,3.10
2022-11-30T21:58:44.179Z,3.10
2022-11-30T22:01:17.159Z,3.10
2022-11-30T22:03:44.481Z,3.10
2022-11-30T22:06:14.093Z,3.00
2022-11-30T22:08:41.342Z,3.00
2022-11-30T22:11:17.144Z,3.00
2022-11-30T22:13:44.638Z,3.00
2022-11-30T22:16:14.019Z,3.00
2022-11-30T22:18:42.385Z,3.00
2022-11-30T22:21:15.522Z,3.10
2022-11-30T22:23:49.066Z,3.10
2022-11-30T22:26:29.985Z,3.10
2022-11-30T22:28:59.139Z,3.10
2022-11-30T22:31:28.431Z,3.10
2022-11-30T22:33:55.904Z,3.10
2022-11-30T22:36:26.206Z,3.10
2022-11-30T22:38:58.714Z,3.10
2022-11-30T22:41:26.861Z,3.10
2022-11-30T22:43:55.033Z,3.10
2022-11-30T22:46:27.772Z,3.10
2022-11-30T22:48:55.263Z,3.10
2022-11-30T22:51:24.246Z,3.10
2022-11-30T22:53:51.954Z,3.10
2022-11-30T22:56:23.908Z,3.10
2022-11-30T22:58:56.091Z,3.20
2022-11-30T23:01:31.592Z,3.20
2022-11-30T23:04:12.082Z,3.20
2022-11-30T23:06:40.461Z,3.20
2022-11-30T23:09:10.918Z,3.20
2022-11-30T23:11:37.743Z,3.20
2022-11-30T23:14:06.188Z,3.20
2022-11-30T23:16:32.967Z,3.20
2022-11-30T23:19:00.515Z,3.20
2022-11-30T23:21:41.620Z,3.10
2022-11-30T23:24:12.172Z,3.10
2022-11-30T23:26:39.071Z,3.10
2022-11-30T23:29:09.316Z,3.10
2022-11-30T23:31:37.289Z,3.10
2022-11-30T23:34:05.949Z,3.10
2022-11-30T23:36:33.825Z,3.10
2022-11-30T23:39:06.246Z,3.00
2022-11-30T23:41:33.469Z,3.00
2022-11-30T23:44:00.613Z,3.00
2022-11-30T23:46:27.422Z,3.00
2022-11-30T23:48:55.639Z,3.00
2022-11-30T23:51:23.444Z,3.10
2022-11-30T23:53:50.175Z,3.10
2022-11-30T23:56:18.492Z,3.00
2022-11-30T23:58:45.605Z,3.00
